createdAt,value
2018-12-15T00:00:39.719Z,101521.33
2018-12-15T00:03:07.921Z,101521.73
2018-12-15T00:05:36.196Z,101519.08
2018-12-15T00:08:04.368Z,101530.59
2018-12-15T00:10:32.554Z,101526.23
2018-12-15T00:13:00.662Z,101532.20
2018-12-15T00:15:28.834Z,101533.02
2018-12-15T00:17:57.064Z,101530.06
2018-12-15T00:20:25.223Z,101532.34
2018-12-15T00:22:53.347Z,101532.72
2018-12-15T00:25:21.520Z,101533.16
2018-12-15T00:27:49.700Z,101529.17
2018-12-15T00:30:17.837Z,101532.37
2018-12-15T00:32:46.012Z,101534.91
2018-12-15T00:35:14.137Z,101532.27
2018-12-15T00:37:42.330Z,101530.84
2018-12-15T00:40:10.548Z,101538.91
2018-12-15T00:42:38.676Z,101534.55
2018-12-15T00:45:06.965Z,101533.88
2018-12-15T00:47:35.087Z,101540.48
2018-12-15T00:50:03.487Z,101539.18
2018-12-15T00:52:31.744Z,101537.99
2018-12-15T00:54:59.989Z,101536.62
2018-12-15T00:57:28.119Z,101537.55
2018-12-15T00:59:56.348Z,101535.23
2018-12-15T01:02:24.559Z,101529.53
2018-12-15T01:04:52.689Z,101539.20
2018-12-15T01:07:20.832Z,101539.58
2018-12-15T01:09:49.000Z,101538.61
2018-12-15T01:12:17.170Z,101535.03
2018-12-15T01:14:46.487Z,101531.52
2018-12-15T01:17:20.330Z,101536.70
2018-12-15T01:19:44.794Z,101538.84
2018-12-15T01:22:13.011Z,101542.58
2018-12-15T01:24:41.208Z,101543.91
2018-12-15T01:27:09.365Z,101546.65
2018-12-15T01:29:37.504Z,101546.85
2018-12-15T01:32:05.633Z,101549.76
2018-12-15T01:34:33.800Z,101543.06
2018-12-15T01:37:01.950Z,101546.70
2018-12-15T01:39:30.095Z,101551.42
2018-12-15T01:41:58.275Z,101554.72
2018-12-15T01:44:26.397Z,101550.15
2018-12-15T01:46:54.541Z,101553.59
2018-12-15T01:49:22.685Z,101553.00
2018-12-15T01:51:50.817Z,101560.00
2018-12-15T01:54:19.017Z,101553.88
2018-12-15T01:56:47.164Z,101559.80
2018-12-15T01:59:15.318Z,101550.77
2018-12-15T02:01:43.424Z,101555.15
2018-12-15T02:04:11.534Z,101554.67
2018-12-15T02:06:39.711Z,101554.17
2018-12-15T02:09:07.852Z,101559.11
2018-12-15T02:11:35.978Z,101561.81
2018-12-15T02:14:04.138Z,101567.28
2018-12-15T02:16:32.837Z,101564.95
2018-12-15T02:19:00.928Z,101563.33
2018-12-15T02:21:29.130Z,101569.78
2018-12-15T02:23:57.240Z,101570.87
2018-12-15T02:26:25.380Z,101572.31
2018-12-15T02:28:53.504Z,101567.89
2018-12-15T02:31:23.628Z,101573.79
2018-12-15T02:33:51.797Z,101569.02
2018-12-15T02:36:20.024Z,101575.13
2018-12-15T02:38:48.194Z,101576.31
2018-12-15T02:41:16.443Z,101578.52
2018-12-15T02:43:44.580Z,101574.53
2018-12-15T02:46:12.770Z,101570.43
2018-12-15T02:48:40.904Z,101571.48
2018-12-15T02:51:09.049Z,101569.88
2018-12-15T02:53:37.272Z,101573.55
2018-12-15T02:56:05.395Z,101571.94
2018-12-15T02:58:33.539Z,101571.89
2018-12-15T03:01:01.661Z,101565.61
2018-12-15T03:03:29.815Z,101562.50
2018-12-15T03:05:57.968Z,101577.11
2018-12-15T03:08:26.178Z,101573.05
2018-12-15T03:10:54.383Z,101572.69
2018-12-15T03:13:22.529Z,101577.27
2018-12-15T03:15:50.659Z,101576.42
2018-12-15T03:18:18.880Z,101576.20
2018-12-15T03:21:00.551Z,101582.82
2018-12-15T03:23:28.815Z,101575.94
2018-12-15T03:25:57.508Z,101581.23
2018-12-15T03:28:25.623Z,101581.03
2018-12-15T03:30:53.756Z,101580.89
2018-12-15T03:33:21.904Z,101580.79
2018-12-15T03:35:50.117Z,101578.77
2018-12-15T03:38:18.245Z,101584.39
2018-12-15T03:40:46.395Z,101584.73
2018-12-15T03:43:14.571Z,101585.34
2018-12-15T03:45:42.703Z,101579.91
2018-12-15T03:48:10.807Z,101580.51
2018-12-15T03:50:38.923Z,101580.62
2018-12-15T03:53:07.125Z,101581.02
2018-12-15T03:55:35.300Z,101579.91
2018-12-15T03:58:03.440Z,101577.23
2018-12-15T04:00:31.619Z,101575.31
2018-12-15T04:02:59.766Z,101575.00
2018-12-15T04:05:27.955Z,101569.25
2018-12-15T04:07:56.250Z,101572.44
2018-12-15T04:10:24.463Z,101582.78
2018-12-15T04:12:52.702Z,101578.64
2018-12-15T04:15:20.969Z,101578.27
2018-12-15T04:17:49.178Z,101584.08
2018-12-15T04:20:17.388Z,101585.17
2018-12-15T04:22:45.554Z,101589.53
2018-12-15T04:25:13.713Z,101589.02
2018-12-15T04:27:41.875Z,101594.00
2018-12-15T04:30:10.169Z,101599.91
2018-12-15T04:32:44.958Z,101600.56
2018-12-15T04:35:08.516Z,101598.25
2018-12-15T04:37:36.666Z,101596.47
2018-12-15T04:40:07.261Z,101605.22
2018-12-15T04:42:35.393Z,101604.13
2018-12-15T04:45:03.908Z,101602.44
2018-12-15T04:47:32.040Z,101599.69
2018-12-15T04:50:00.186Z,101607.72
2018-12-15T04:52:28.344Z,101603.95
2018-12-15T04:54:56.538Z,101606.55
2018-12-15T04:57:25.423Z,101603.82
2018-12-15T04:59:53.713Z,101595.30
2018-12-15T05:02:21.808Z,101603.27
2018-12-15T05:04:50.019Z,101600.63
2018-12-15T05:07:18.108Z,101601.83
2018-12-15T05:09:46.265Z,101600.03
2018-12-15T05:12:14.404Z,101600.15
2018-12-15T05:14:42.713Z,101603.77
2018-12-15T05:17:10.865Z,101598.56
2018-12-15T05:19:39.129Z,101603.16
2018-12-15T05:22:07.262Z,101603.30
2018-12-15T05:24:35.413Z,101604.59
2018-12-15T05:27:04.171Z,101602.09
2018-12-15T05:29:33.536Z,101611.86
2018-12-15T05:32:02.188Z,101612.23
2018-12-15T05:34:30.353Z,101616.70
2018-12-15T05:36:58.533Z,101613.98
2018-12-15T05:39:26.629Z,101616.31
2018-12-15T05:41:54.747Z,101617.44
2018-12-15T05:44:22.990Z,101623.39
2018-12-15T05:46:51.132Z,101621.69
2018-12-15T05:49:19.286Z,101628.49
2018-12-15T05:51:47.480Z,101629.84
2018-12-15T05:54:15.673Z,101631.91
2018-12-15T05:56:43.906Z,101627.06
2018-12-15T05:59:12.088Z,101630.18
2018-12-15T06:01:40.271Z,101630.18
2018-12-15T06:04:08.460Z,101633.34
2018-12-15T06:06:36.634Z,101636.46
2018-12-15T06:09:06.214Z,101642.78
2018-12-15T06:11:34.426Z,101647.36
2018-12-15T06:14:04.149Z,101638.92
2018-12-15T06:16:32.525Z,101648.36
2018-12-15T06:19:00.615Z,101643.52
2018-12-15T06:21:28.745Z,101643.64
2018-12-15T06:23:56.850Z,101652.03
2018-12-15T06:26:25.015Z,101654.00
2018-12-15T06:28:53.153Z,101655.33
2018-12-15T06:31:21.335Z,101661.84
2018-12-15T06:33:49.507Z,101660.72
2018-12-15T06:36:19.265Z,101660.45
2018-12-15T06:38:47.425Z,101658.39
2018-12-15T06:41:15.547Z,101660.86
2018-12-15T06:43:43.849Z,101656.26
2018-12-15T06:46:12.169Z,101657.45
2018-12-15T06:48:40.386Z,101659.86
2018-12-15T06:51:08.651Z,101660.72
2018-12-15T06:53:37.390Z,101652.95
2018-12-15T06:56:06.677Z,101654.34
2018-12-15T06:58:34.839Z,101655.19
2018-12-15T07:01:05.941Z,101661.11
2018-12-15T07:03:34.657Z,101666.80
2018-12-15T07:06:02.843Z,101665.73
2018-12-15T07:08:30.951Z,101664.63
2018-12-15T07:10:59.105Z,101667.32
2018-12-15T07:13:27.321Z,101663.56
2018-12-15T07:15:56.652Z,101663.30
2018-12-15T07:18:24.867Z,101671.94
2018-12-15T07:20:53.087Z,101673.05
2018-12-15T07:23:21.279Z,101667.09
2018-12-15T07:25:49.827Z,101665.41
2018-12-15T07:28:18.005Z,101670.22
2018-12-15T07:30:46.275Z,101669.88
2018-12-15T07:33:14.449Z,101667.02
2018-12-15T07:35:42.732Z,101665.41
2018-12-15T07:38:10.892Z,101671.94
2018-12-15T07:40:39.448Z,101665.67
2018-12-15T07:43:07.592Z,101665.41
2018-12-15T07:45:36.689Z,101670.02
2018-12-15T07:48:04.882Z,101669.41
2018-12-15T07:50:33.187Z,101673.11
2018-12-15T07:53:01.377Z,101672.05
2018-12-15T07:55:29.490Z,101673.84
2018-12-15T07:57:57.670Z,101664.29
2018-12-15T08:00:25.864Z,101664.89
2018-12-15T08:02:54.089Z,101667.68
2018-12-15T08:05:22.309Z,101659.45
2018-12-15T08:07:50.491Z,101658.63
2018-12-15T08:10:22.582Z,101662.75
2018-12-15T08:12:59.355Z,101659.23
2018-12-15T08:15:28.078Z,101665.28
2018-12-15T08:17:56.207Z,101666.01
2018-12-15T08:20:24.464Z,101668.27
2018-12-15T08:22:52.557Z,101671.59
2018-12-15T08:25:21.312Z,101664.03
2018-12-15T08:27:49.518Z,101665.36
2018-12-15T08:30:18.092Z,101672.51
2018-12-15T08:32:46.312Z,101663.30
2018-12-15T08:35:14.530Z,101670.78
2018-12-15T08:37:42.690Z,101672.33
2018-12-15T08:40:12.704Z,101678.50
2018-12-15T08:42:40.885Z,101674.37
2018-12-15T08:45:09.148Z,101680.55
2018-12-15T08:47:37.672Z,101674.98
2018-12-15T08:50:06.260Z,101685.86
2018-12-15T08:52:34.579Z,101683.47
2018-12-15T08:55:02.988Z,101680.55
2018-12-15T08:57:31.619Z,101683.39
2018-12-15T08:59:59.760Z,101684.14
2018-12-15T09:02:27.988Z,101681.86
2018-12-15T09:04:56.080Z,101680.02
2018-12-15T09:07:24.734Z,101684.61
2018-12-15T09:09:52.950Z,101684.11
2018-12-15T09:12:21.144Z,101683.00
2018-12-15T09:14:49.474Z,101682.67
2018-12-15T09:17:17.802Z,101680.41
2018-12-15T09:19:46.000Z,101682.33
2018-12-15T09:22:14.274Z,101680.13
2018-12-15T09:24:42.495Z,101679.39
2018-12-15T09:27:10.734Z,101679.47
2018-12-15T09:29:39.819Z,101677.92
2018-12-15T09:32:07.933Z,101673.87
2018-12-15T09:34:36.104Z,101669.23
2018-12-15T09:37:04.317Z,101674.89
2018-12-15T09:39:32.681Z,101675.27
2018-12-15T09:42:00.965Z,101677.98
2018-12-15T09:44:29.240Z,101673.15
2018-12-15T09:46:57.386Z,101674.98
2018-12-15T09:49:25.589Z,101675.80
2018-12-15T09:51:53.784Z,101671.10
2018-12-15T09:54:22.137Z,101670.83
2018-12-15T09:56:50.970Z,101675.44
2018-12-15T09:59:19.100Z,101670.92
2018-12-15T10:01:47.308Z,101663.39
2018-12-15T10:04:15.466Z,101664.22
2018-12-15T10:06:43.659Z,101655.80
2018-12-15T10:09:11.860Z,101650.05
2018-12-15T10:11:39.970Z,101648.44
2018-12-15T10:14:08.134Z,101646.70
2018-12-15T10:16:36.333Z,101650.34
2018-12-15T10:19:04.660Z,101644.46
2018-12-15T10:21:33.636Z,101637.23
2018-12-15T10:24:01.854Z,101640.42
2018-12-15T10:26:30.050Z,101631.05
2018-12-15T10:28:58.174Z,101623.02
2018-12-15T10:31:32.126Z,101627.45
2018-12-15T10:34:00.326Z,101630.23
2018-12-15T10:36:29.395Z,101623.66
2018-12-15T10:38:57.563Z,101623.38
2018-12-15T10:41:26.670Z,101621.44
2018-12-15T10:43:54.917Z,101621.61
2018-12-15T10:46:24.461Z,101617.11
2018-12-15T10:48:52.767Z,101615.83
2018-12-15T10:51:20.924Z,101613.41
2018-12-15T10:53:49.151Z,101612.08
2018-12-15T10:56:17.319Z,101617.34
2018-12-15T10:58:45.519Z,101611.21
2018-12-15T11:01:19.495Z,101613.30
2018-12-15T11:03:47.680Z,101613.84
2018-12-15T11:06:15.902Z,101603.34
2018-12-15T11:08:44.843Z,101609.58
2018-12-15T11:11:13.229Z,101596.15
2018-12-15T11:13:41.421Z,101597.20
2018-12-15T11:16:09.698Z,101598.40
2018-12-15T11:18:37.956Z,101595.73
2018-12-15T11:21:06.137Z,101590.95
2018-12-15T11:23:34.428Z,101589.53
2018-12-15T11:26:02.714Z,101584.96
2018-12-15T11:28:30.950Z,101587.62
2018-12-15T11:30:59.144Z,101593.48
2018-12-15T11:33:27.367Z,101592.06
2018-12-15T11:35:55.566Z,101585.86
2018-12-15T11:38:23.812Z,101586.25
2018-12-15T11:40:52.052Z,101584.53
2018-12-15T11:43:20.264Z,101588.38
2018-12-15T11:45:48.576Z,101583.87
2018-12-15T11:48:16.774Z,101588.89
2018-12-15T11:50:44.949Z,101583.63
2018-12-15T11:53:13.195Z,101574.98
2018-12-15T11:55:48.040Z,101576.64
2018-12-15T11:58:16.783Z,101572.88
2018-12-15T12:00:45.096Z,101575.68
2018-12-15T12:03:13.287Z,101572.54
2018-12-15T12:05:41.477Z,101569.63
2018-12-15T12:08:09.716Z,101561.66
2018-12-15T12:10:38.085Z,101563.73
2018-12-15T12:13:06.469Z,101555.59
2018-12-15T12:15:34.735Z,101563.18
2018-12-15T12:18:03.651Z,101561.59
2018-12-15T12:20:31.815Z,101555.09
2018-12-15T12:23:00.018Z,101560.13
2018-12-15T12:25:28.233Z,101554.78
2018-12-15T12:27:56.520Z,101552.67
2018-12-15T12:30:24.718Z,101557.36
2018-12-15T12:32:52.913Z,101560.09
2018-12-15T12:35:21.061Z,101556.35
2018-12-15T12:37:49.373Z,101560.45
2018-12-15T12:40:17.565Z,101558.61
2018-12-15T12:42:45.807Z,101560.32
2018-12-15T12:45:13.976Z,101557.19
2018-12-15T12:47:42.223Z,101555.52
2018-12-15T12:50:10.420Z,101557.11
2018-12-15T12:52:38.589Z,101556.39
2018-12-15T12:55:08.989Z,101560.72
2018-12-15T12:57:37.167Z,101552.67
2018-12-15T13:00:06.707Z,101552.23
2018-12-15T13:02:34.954Z,101554.34
2018-12-15T13:05:03.685Z,101557.11
2018-12-15T13:07:31.912Z,101558.67
2018-12-15T13:10:00.340Z,101553.67
2018-12-15T13:12:28.636Z,101553.20
2018-12-15T13:14:56.768Z,101558.63
2018-12-15T13:17:26.246Z,101553.20
2018-12-15T13:19:54.430Z,101553.23
2018-12-15T13:22:23.134Z,101560.59
2018-12-15T13:24:51.646Z,101556.33
2018-12-15T13:27:19.905Z,101551.66
2018-12-15T13:29:48.058Z,101556.98
2018-12-15T13:32:16.269Z,101555.59
2018-12-15T13:34:45.103Z,101561.99
2018-12-15T13:37:13.370Z,101563.22
2018-12-15T13:39:41.755Z,101561.45
2018-12-15T13:42:10.131Z,101566.39
2018-12-15T13:44:38.329Z,101558.92
2018-12-15T13:47:06.617Z,101558.95
2018-12-15T13:49:34.877Z,101561.58
2018-12-15T13:52:03.177Z,101563.32
2018-12-15T13:54:31.361Z,101562.53
2018-12-15T13:56:59.573Z,101561.95
2018-12-15T13:59:27.749Z,101558.86
2018-12-15T14:01:55.932Z,101557.83
2018-12-15T14:04:24.128Z,101557.64
2018-12-15T14:06:52.292Z,101562.91
2018-12-15T14:09:20.594Z,101555.98
2018-12-15T14:11:48.769Z,101548.05
2018-12-15T14:14:16.937Z,101552.91
2018-12-15T14:16:45.141Z,101553.60
2018-12-15T14:19:13.240Z,101550.63
2018-12-15T14:21:41.410Z,101555.44
2018-12-15T14:24:09.611Z,101560.38
2018-12-15T14:26:37.741Z,101552.95
2018-12-15T14:29:05.900Z,101547.30
2018-12-15T14:31:36.901Z,101550.23
2018-12-15T14:34:05.339Z,101543.48
2018-12-15T14:36:33.479Z,101544.54
2018-12-15T14:39:01.699Z,101534.31
2018-12-15T14:41:29.885Z,101537.09
2018-12-15T14:43:58.073Z,101534.03
2018-12-15T14:46:26.220Z,101536.27
2018-12-15T14:48:54.387Z,101528.64
2018-12-15T14:51:22.695Z,101532.25
2018-12-15T14:53:50.916Z,101536.38
2018-12-15T14:56:19.248Z,101530.39
2018-12-15T14:58:47.496Z,101528.03
2018-12-15T15:01:15.705Z,101525.37
2018-12-15T15:03:44.017Z,101517.32
2018-12-15T15:06:12.220Z,101522.05
2018-12-15T15:08:40.452Z,101524.41
2018-12-15T15:11:08.630Z,101519.05
2018-12-15T15:13:37.532Z,101519.38
2018-12-15T15:16:05.711Z,101519.21
2018-12-15T15:18:34.150Z,101514.24
2018-12-15T15:21:02.610Z,101514.38
2018-12-15T15:23:31.005Z,101511.29
2018-12-15T15:25:59.703Z,101506.36
2018-12-15T15:28:28.315Z,101512.97
2018-12-15T15:30:56.508Z,101505.56
2018-12-15T15:33:24.762Z,101516.71
2018-12-15T15:35:53.136Z,101509.31
2018-12-15T15:38:22.050Z,101508.34
2018-12-15T15:40:50.196Z,101509.38
2018-12-15T15:43:18.346Z,101499.74
2018-12-15T15:45:46.516Z,101499.19
2018-12-15T15:48:14.691Z,101505.08
2018-12-15T15:50:43.533Z,101498.31
2018-12-15T15:53:12.780Z,101501.07
2018-12-15T15:55:41.824Z,101500.63
2018-12-15T15:58:10.126Z,101492.05
2018-12-15T16:00:38.280Z,101495.52
2018-12-15T16:03:06.428Z,101494.88
2018-12-15T16:05:34.624Z,101483.06
2018-12-15T16:08:02.845Z,101477.82
2018-12-15T16:10:31.209Z,101469.64
2018-12-15T16:12:59.351Z,101468.80
2018-12-15T16:15:27.574Z,101471.41
2018-12-15T16:17:55.796Z,101467.92
2018-12-15T16:20:24.243Z,101463.26
2018-12-15T16:22:52.416Z,101472.34
2018-12-15T16:25:20.678Z,101474.49
2018-12-15T16:27:48.811Z,101470.67
2018-12-15T16:30:17.001Z,101466.60
2018-12-15T16:32:45.226Z,101464.34
2018-12-15T16:35:14.035Z,101463.47
2018-12-15T16:37:42.272Z,101463.39
2018-12-15T16:40:10.815Z,101463.09
2018-12-15T16:42:38.999Z,101460.49
2018-12-15T16:45:10.255Z,101456.52
2018-12-15T16:47:38.404Z,101460.05
2018-12-15T16:50:11.341Z,101457.41
2018-12-15T16:52:40.076Z,101452.45
2018-12-15T16:55:09.011Z,101457.42
2018-12-15T16:57:37.343Z,101448.00
2018-12-15T17:00:11.573Z,101448.27
2018-12-15T17:02:39.745Z,101445.97
2018-12-15T17:05:08.367Z,101444.05
2018-12-15T17:07:36.684Z,101442.67
2018-12-15T17:10:07.623Z,101439.67
2018-12-15T17:12:36.000Z,101437.50
2018-12-15T17:15:07.082Z,101439.66
2018-12-15T17:17:35.319Z,101437.14
2018-12-15T17:20:05.499Z,101432.45
2018-12-15T17:22:33.742Z,101423.89
2018-12-15T17:25:02.049Z,101430.45
2018-12-15T17:27:30.843Z,101427.74
2018-12-15T17:29:59.148Z,101425.44
2018-12-15T17:32:28.196Z,101423.49
2018-12-15T17:34:56.876Z,101425.02
2018-12-15T17:37:25.922Z,101419.22
2018-12-15T17:39:54.170Z,101418.60
2018-12-15T17:42:22.374Z,101407.23
2018-12-15T17:44:50.654Z,101402.91
2018-12-15T17:47:18.966Z,101396.20
2018-12-15T17:49:47.229Z,101405.47
2018-12-15T17:52:15.614Z,101398.28
2018-12-15T17:54:43.922Z,101394.81
2018-12-15T17:57:12.139Z,101392.23
2018-12-15T17:59:40.507Z,101386.78
2018-12-15T18:02:08.783Z,101387.23
2018-12-15T18:04:37.017Z,101387.02
2018-12-15T18:07:05.374Z,101380.21
2018-12-15T18:09:33.608Z,101386.41
2018-12-15T18:12:01.985Z,101380.52
2018-12-15T18:14:30.204Z,101372.72
2018-12-15T18:16:58.532Z,101365.98
2018-12-15T18:19:26.911Z,101356.31
2018-12-15T18:21:55.079Z,101356.99
2018-12-15T18:24:23.224Z,101360.73
2018-12-15T18:26:51.471Z,101362.22
2018-12-15T18:29:19.633Z,101362.52
2018-12-15T18:31:47.798Z,101363.72
2018-12-15T18:34:16.018Z,101360.48
2018-12-15T18:36:44.195Z,101365.22
2018-12-15T18:39:12.475Z,101362.15
2018-12-15T18:41:40.603Z,101361.33
2018-12-15T18:44:08.831Z,101356.23
2018-12-15T18:46:37.059Z,101358.82
2018-12-15T18:49:05.501Z,101349.25
2018-12-15T18:51:34.421Z,101344.45
2018-12-15T18:54:02.767Z,101344.86
2018-12-15T18:56:31.281Z,101339.79
2018-12-15T18:59:00.185Z,101334.92
2018-12-15T19:01:28.588Z,101344.83
2018-12-15T19:03:56.810Z,101326.86
2018-12-15T19:06:25.082Z,101334.79
2018-12-15T19:08:53.288Z,101324.55
2018-12-15T19:11:21.553Z,101322.02
2018-12-15T19:13:49.743Z,101319.23
2018-12-15T19:16:18.180Z,101317.40
2018-12-15T19:18:46.465Z,101314.10
2018-12-15T19:21:14.696Z,101311.23
2018-12-15T19:23:42.921Z,101298.55
2018-12-15T19:26:11.068Z,101298.81
2018-12-15T19:28:39.293Z,101295.05
2018-12-15T19:31:07.465Z,101293.82
2018-12-15T19:33:35.718Z,101290.14
2018-12-15T19:36:04.074Z,101286.46
2018-12-15T19:38:33.235Z,101282.13
2018-12-15T19:41:01.417Z,101283.69
2018-12-15T19:43:29.631Z,101286.50
2018-12-15T19:45:57.795Z,101283.98
2018-12-15T19:48:26.007Z,101288.86
2018-12-15T19:50:54.243Z,101280.72
2018-12-15T19:53:22.487Z,101274.80
2018-12-15T19:55:51.665Z,101266.54
2018-12-15T19:58:19.859Z,101270.99
2018-12-15T20:00:48.162Z,101258.68
2018-12-15T20:03:17.622Z,101261.60
2018-12-15T20:05:52.199Z,101258.47
2018-12-15T20:08:21.480Z,101253.30
2018-12-15T20:10:49.738Z,101248.72
2018-12-15T20:13:17.942Z,101241.67
2018-12-15T20:18:31.975Z,101242.90
2018-12-15T20:21:00.281Z,101245.34
2018-12-15T20:23:28.523Z,101239.36
2018-12-15T20:25:56.875Z,101239.53
2018-12-15T20:28:25.075Z,101236.58
2018-12-15T20:30:56.445Z,101236.70
2018-12-15T20:33:24.723Z,101232.66
2018-12-15T20:35:53.079Z,101229.63
2018-12-15T20:38:21.279Z,101234.42
2018-12-15T20:40:49.600Z,101221.98
2018-12-15T20:43:17.726Z,101227.22
2018-12-15T20:45:46.015Z,101218.72
2018-12-15T20:48:14.376Z,101224.73
2018-12-15T20:50:42.596Z,101224.26
2018-12-15T20:53:10.774Z,101219.03
2018-12-15T20:55:39.042Z,101213.99
2018-12-15T20:58:07.210Z,101207.27
2018-12-15T21:00:35.649Z,101202.67
2018-12-15T21:03:04.013Z,101205.50
2018-12-15T21:05:36.768Z,101205.02
2018-12-15T21:08:02.458Z,101192.67
2018-12-15T21:10:30.723Z,101185.53
2018-12-15T21:12:59.006Z,101183.52
2018-12-15T21:15:33.815Z,101186.95
2018-12-15T21:18:01.968Z,101179.87
2018-12-15T21:20:30.202Z,101177.20
2018-12-15T21:22:58.330Z,101181.88
2018-12-15T21:25:26.499Z,101182.31
2018-12-15T21:27:54.618Z,101179.56
2018-12-15T21:30:22.756Z,101180.59
2018-12-15T21:32:50.980Z,101167.76
2018-12-15T21:35:19.156Z,101165.48
2018-12-15T21:37:47.402Z,101153.04
2018-12-15T21:40:15.640Z,101155.73
2018-12-15T21:42:43.853Z,101153.61
2018-12-15T21:45:11.981Z,101153.44
2018-12-15T21:47:41.786Z,101144.23
2018-12-15T21:50:10.843Z,101136.91
2018-12-15T21:52:38.985Z,101126.17
2018-12-15T21:55:07.443Z,101120.60
2018-12-15T21:57:35.588Z,101114.44
2018-12-15T22:00:04.628Z,101117.73
2018-12-15T22:02:32.913Z,101109.38
2018-12-15T22:05:01.147Z,101107.33
2018-12-15T22:07:29.306Z,101111.13
2018-12-15T22:09:57.486Z,101099.84
2018-12-15T22:12:25.662Z,101095.64
2018-12-15T22:14:53.781Z,101085.73
2018-12-15T22:17:21.944Z,101085.03
2018-12-15T22:19:50.027Z,101081.51
2018-12-15T22:22:18.216Z,101073.94
2018-12-15T22:24:46.918Z,101064.17
2018-12-15T22:27:15.118Z,101061.43
2018-12-15T22:29:43.300Z,101050.91
2018-12-15T22:32:11.524Z,101057.73
2018-12-15T22:34:39.701Z,101055.42
2018-12-15T22:37:07.965Z,101052.52
2018-12-15T22:39:36.118Z,101052.28
2018-12-15T22:42:04.494Z,101047.74
2018-12-15T22:44:32.685Z,101032.26
2018-12-15T22:47:00.921Z,101029.73
2018-12-15T22:49:29.119Z,101033.29
2018-12-15T22:51:57.393Z,101033.37
2018-12-15T22:54:25.531Z,101026.52
2018-12-15T22:56:53.840Z,101025.23
2018-12-15T22:59:23.075Z,101024.94
2018-12-15T23:01:52.269Z,101022.13
2018-12-15T23:04:20.449Z,101020.65
2018-12-15T23:06:49.408Z,101009.48
2018-12-15T23:09:18.741Z,101009.23
2018-12-15T23:11:47.043Z,101005.36
2018-12-15T23:14:15.160Z,101011.58
2018-12-15T23:16:43.309Z,101006.69
2018-12-15T23:19:11.440Z,101000.05
2018-12-15T23:21:39.565Z,100997.00
2018-12-15T23:24:07.681Z,100999.34
2018-12-15T23:26:35.986Z,100991.67
2018-12-15T23:29:04.252Z,100986.02
2018-12-15T23:31:32.366Z,100989.45
2018-12-15T23:34:00.812Z,100988.89
2018-12-15T23:36:29.148Z,100981.48
2018-12-15T23:38:57.553Z,100971.94
2018-12-15T23:41:25.885Z,100969.36
2018-12-15T23:43:54.058Z,100959.00
2018-12-15T23:46:22.958Z,100960.83
2018-12-15T23:48:51.129Z,100959.99
2018-12-15T23:51:19.272Z,100957.95
2018-12-15T23:53:47.442Z,100956.97
2018-12-15T23:56:15.677Z,100941.92
2018-12-15T23:58:43.851Z,100935.84
